Time,TemperatureF,DewpointF,PressureIn,WindDirection,WindDirectionDegrees,WindSpeedMPH,WindSpeedGustMPH,Humidity,HourlyPrecipIn,Conditions,Clouds,dailyrainin,SoftwareType,DateUTC
2013-10-06 00:02:00,19.6,15.3,30.53,WSW,247,0.0,5.0,83,0.00,,,0.00,meteohub,2013-10-06 07:02:00,
2013-10-06 00:07:00,19.8,15.8,30.54,WSW,247,0.0,3.0,84,0.00,,,0.00,meteohub,2013-10-06 07:07:00,
2013-10-06 00:12:00,19.8,15.8,30.54,WSW,247,0.0,3.0,84,0.00,,,0.00,meteohub,2013-10-06 07:12:00,
2013-10-06 00:17:00,19.9,16.0,30.54,WSW,247,0.0,0.0,84,0.00,,,0.00,meteohub,2013-10-06 07:17:00,
2013-10-06 00:22:00,19.8,15.4,30.54,WSW,247,0.0,0.0,83,0.00,,,0.00,meteohub,2013-10-06 07:22:00,
2013-10-06 00:27:00,19.8,15.1,30.54,WSW,247,0.0,0.0,82,0.00,,,0.00,meteohub,2013-10-06 07:27:00,
2013-10-06 00:32:00,19.4,15.1,30.54,WSW,247,0.0,0.0,83,0.00,,,0.00,meteohub,2013-10-06 07:32:00,
2013-10-06 00:37:00,19.0,14.7,30.55,WSW,247,0.0,1.0,83,0.00,,,0.00,meteohub,2013-10-06 07:37:00,
2013-10-06 00:42:00,18.9,14.9,30.55,WSW,247,0.0,1.0,84,0.00,,,0.00,meteohub,2013-10-06 07:42:00,
2013-10-06 00:47:00,18.9,15.1,30.55,WSW,247,0.0,1.0,85,0.00,,,0.00,meteohub,2013-10-06 07:47:00,
2013-10-06 00:52:00,18.9,15.4,30.55,WSW,247,0.0,1.0,86,0.00,,,0.00,meteohub,2013-10-06 07:52:00,
2013-10-06 00:57:00,18.9,15.6,30.56,WSW,247,0.0,1.0,87,0.00,,,0.00,meteohub,2013-10-06 07:57:00,
2013-10-06 01:02:00,18.9,15.6,30.55,WSW,247,0.0,1.0,87,0.00,,,0.00,meteohub,2013-10-06 08:02:00,
2013-10-06 01:07:00,18.3,14.9,30.55,WSW,247,0.0,1.0,86,0.00,,,0.00,meteohub,2013-10-06 08:07:00,
2013-10-06 01:12:00,18.1,14.7,30.56,WSW,247,0.0,1.0,86,0.00,,,0.00,meteohub,2013-10-06 08:12:00,
2013-10-06 01:17:00,18.0,15.1,30.55,WSW,247,0.0,1.0,88,0.00,,,0.00,meteohub,2013-10-06 08:17:00,
2013-10-06 01:22:00,18.1,15.3,30.55,WSW,247,0.0,0.0,88,0.00,,,0.00,meteohub,2013-10-06 08:22:00,
2013-10-06 01:27:00,18.3,15.4,30.55,WSW,247,0.0,1.0,88,0.00,,,0.00,meteohub,2013-10-06 08:27:00,
2013-10-06 01:32:00,18.7,15.4,30.55,WSW,247,0.0,1.0,87,0.00,,,0.00,meteohub,2013-10-06 08:32:00,
2013-10-06 01:37:00,18.3,14.5,30.55,WSW,247,0.0,1.0,85,0.00,,,0.00,meteohub,2013-10-06 08:37:00,
2013-10-06 01:42:00,18.1,14.7,30.55,WSW,247,0.0,0.0,86,0.00,,,0.00,meteohub,2013-10-06 08:42:00,
2013-10-06 01:47:00,18.1,14.9,30.55,WSW,247,0.0,0.0,87,0.00,,,0.00,meteohub,2013-10-06 08:47:00,
2013-10-06 01:52:00,18.1,14.9,30.55,WSW,247,0.0,0.0,87,0.00,,,0.00,meteohub,2013-10-06 08:52:00,
2013-10-06 01:57:00,18.0,14.2,30.54,WSW,247,0.0,0.0,85,0.00,,,0.00,meteohub,2013-10-06 08:57:00,
2013-10-06 02:02:00,17.6,14.2,30.54,WSW,247,0.0,0.0,86,0.00,,,0.00,meteohub,2013-10-06 09:02:00,
2013-10-06 02:07:00,17.6,14.2,30.54,WSW,247,0.0,1.0,86,0.00,,,0.00,meteohub,2013-10-06 09:07:00,
2013-10-06 02:12:00,17.4,13.6,30.54,WSW,247,0.0,1.0,85,0.00,,,0.00,meteohub,2013-10-06 09:12:00,
2013-10-06 02:17:00,17.4,14.0,30.55,WSW,247,0.0,0.0,86,0.00,,,0.00,meteohub,2013-10-06 09:17:00,
2013-10-06 02:22:00,17.6,14.2,30.55,WSW,247,0.0,0.0,86,0.00,,,0.00,meteohub,2013-10-06 09:22:00,
2013-10-06 02:27:00,17.2,13.5,30.55,WSW,247,0.0,0.0,85,0.00,,,0.00,meteohub,2013-10-06 09:27:00,
2013-10-06 02:32:00,17.2,14.0,30.55,WSW,247,0.0,0.0,87,0.00,,,0.00,meteohub,2013-10-06 09:32:00,
2013-10-06 02:37:00,17.2,14.4,30.55,WSW,247,0.0,0.0,88,0.00,,,0.00,meteohub,2013-10-06 09:37:00,
2013-10-06 02:42:00,17.6,14.7,30.56,WSW,247,0.0,0.0,88,0.00,,,0.00,meteohub,2013-10-06 09:42:00,
2013-10-06 02:47:00,17.8,14.5,30.56,WSW,247,0.0,0.0,87,0.00,,,0.00,meteohub,2013-10-06 09:47:00,
2013-10-06 02:52:00,17.6,14.2,30.56,WSW,247,0.0,0.0,86,0.00,,,0.00,meteohub,2013-10-06 09:52:00,
2013-10-06 02:57:00,17.2,14.0,30.56,WSW,247,0.0,0.0,87,0.00,,,0.00,meteohub,2013-10-06 09:57:00,
2013-10-06 03:02:00,17.1,14.2,30.56,WSW,247,0.0,0.0,88,0.00,,,0.00,meteohub,2013-10-06 10:02:00,
2013-10-06 03:07:00,17.2,14.0,30.56,WSW,247,1.0,0.0,87,0.00,,,0.00,meteohub,2013-10-06 10:07:00,
2013-10-06 03:12:00,16.5,12.7,30.55,WSW,247,3.0,4.0,85,0.00,,,0.00,meteohub,2013-10-06 10:12:00,
2013-10-06 03:17:00,16.2,12.9,30.56,WSW,247,0.0,4.0,87,0.00,,,0.00,meteohub,2013-10-06 10:17:00,
2013-10-06 03:22:00,16.2,13.3,30.56,WSW,247,3.0,4.0,88,0.00,,,0.00,meteohub,2013-10-06 10:22:00,
2013-10-06 03:27:00,16.2,12.9,30.56,WSW,247,2.0,4.0,87,0.00,,,0.00,meteohub,2013-10-06 10:27:00,
2013-10-06 03:32:00,16.0,12.6,30.56,WSW,247,1.0,4.0,86,0.00,,,0.00,meteohub,2013-10-06 10:32:00,
2013-10-06 03:37:00,16.2,12.9,30.56,WSW,247,0.0,4.0,87,0.00,,,0.00,meteohub,2013-10-06 10:37:00,
2013-10-06 03:42:00,16.3,13.1,30.56,WSW,247,0.0,4.0,87,0.00,,,0.00,meteohub,2013-10-06 10:42:00,
2013-10-06 03:47:00,16.2,12.4,30.56,WSW,247,0.0,3.0,85,0.00,,,0.00,meteohub,2013-10-06 10:47:00,
2013-10-06 03:52:00,15.6,11.8,30.56,WSW,247,0.0,2.0,85,0.00,,,0.00,meteohub,2013-10-06 10:52:00,
2013-10-06 03:57:00,15.3,12.0,30.56,WSW,247,0.0,2.0,87,0.00,,,0.00,meteohub,2013-10-06 10:57:00,
2013-10-06 04:02:00,15.4,12.6,30.56,WSW,247,0.0,2.0,88,0.00,,,0.00,meteohub,2013-10-06 11:02:00,
2013-10-06 04:07:00,15.6,12.9,30.56,WSW,247,0.0,1.0,89,0.00,,,0.00,meteohub,2013-10-06 11:07:00,
2013-10-06 04:12:00,16.0,13.3,30.56,WSW,247,0.0,1.0,89,0.00,,,0.00,meteohub,2013-10-06 11:12:00,
2013-10-06 04:17:00,16.0,13.1,30.56,WSW,247,0.0,0.0,88,0.00,,,0.00,meteohub,2013-10-06 11:17:00,
2013-10-06 04:22:00,15.8,12.6,30.56,WSW,247,0.0,0.0,87,0.00,,,0.00,meteohub,2013-10-06 11:22:00,
2013-10-06 04:27:00,15.6,12.7,30.57,WSW,247,0.0,0.0,88,0.00,,,0.00,meteohub,2013-10-06 11:27:00,
2013-10-06 04:32:00,15.8,12.9,30.57,WSW,247,0.0,0.0,88,0.00,,,0.00,meteohub,2013-10-06 11:32:00,
2013-10-06 04:37:00,15.8,12.6,30.57,WSW,247,0.0,0.0,87,0.00,,,0.00,meteohub,2013-10-06 11:37:00,
2013-10-06 04:42:00,15.6,12.4,30.57,WSW,247,0.0,0.0,87,0.00,,,0.00,meteohub,2013-10-06 11:42:00,
2013-10-06 04:47:00,15.6,12.4,30.58,WSW,247,0.0,0.0,87,0.00,,,0.00,meteohub,2013-10-06 11:47:00,
2013-10-06 04:52:00,15.6,12.4,30.58,WSW,247,0.0,0.0,87,0.00,,,0.00,meteohub,2013-10-06 11:52:00,
2013-10-06 04:57:00,15.6,12.4,30.58,WSW,247,0.0,0.0,87,0.00,,,0.00,meteohub,2013-10-06 11:57:00,
2013-10-06 05:02:00,15.6,12.4,30.58,WSW,247,0.0,0.0,87,0.00,,,0.00,meteohub,2013-10-06 12:02:00,
2013-10-06 05:07:00,16.0,12.7,30.58,WSW,247,0.0,0.0,87,0.00,,,0.00,meteohub,2013-10-06 12:07:00,
2013-10-06 05:12:00,15.8,12.4,30.58,WSW,247,0.0,0.0,86,0.00,,,0.00,meteohub,2013-10-06 12:12:00,
2013-10-06 05:17:00,15.1,11.5,30.58,WSW,247,0.0,0.0,85,0.00,,,0.00,meteohub,2013-10-06 12:17:00,
2013-10-06 05:22:00,14.5,11.3,30.58,WSW,247,0.0,0.0,87,0.00,,,0.00,meteohub,2013-10-06 12:22:00,
2013-10-06 05:27:00,14.5,11.7,30.58,WSW,247,0.0,0.0,88,0.00,,,0.00,meteohub,2013-10-06 12:27:00,
2013-10-06 05:32:00,14.7,11.8,30.58,WSW,247,0.0,0.0,88,0.00,,,0.00,meteohub,2013-10-06 12:32:00,
2013-10-06 05:37:00,14.7,11.8,30.58,WSW,247,0.0,0.0,88,0.00,,,0.00,meteohub,2013-10-06 12:37:00,
2013-10-06 05:42:00,14.5,11.3,30.58,WSW,247,0.0,0.0,87,0.00,,,0.00,meteohub,2013-10-06 12:42:00,
2013-10-06 05:47:00,14.4,11.1,30.58,WSW,247,0.0,0.0,87,0.00,,,0.00,meteohub,2013-10-06 12:47:00,
2013-10-06 05:52:00,14.2,11.3,30.58,WSW,247,0.0,0.0,88,0.00,,,0.00,meteohub,2013-10-06 12:52:00,
2013-10-06 05:57:00,14.4,11.7,30.58,WSW,247,0.0,0.0,89,0.00,,,0.00,meteohub,2013-10-06 12:57:00,
2013-10-06 06:02:00,14.4,11.7,30.58,WSW,247,0.0,0.0,89,0.00,,,0.00,meteohub,2013-10-06 13:02:00,
2013-10-06 06:07:00,14.4,11.5,30.59,WSW,247,0.0,0.0,88,0.00,,,0.00,meteohub,2013-10-06 13:07:00,
2013-10-06 06:12:00,14.2,10.9,30.58,WSW,247,0.0,0.0,87,0.00,,,0.00,meteohub,2013-10-06 13:12:00,
2013-10-06 06:17:00,14.2,10.9,30.59,WSW,247,0.0,0.0,87,0.00,,,0.00,meteohub,2013-10-06 13:17:00,
2013-10-06 06:22:00,13.8,10.9,30.59,WSW,247,0.0,0.0,88,0.00,,,0.00,meteohub,2013-10-06 13:22:00,
2013-10-06 06:27:00,13.8,11.1,30.59,WSW,247,0.0,0.0,89,0.00,,,0.00,meteohub,2013-10-06 13:27:00,
2013-10-06 06:32:00,14.0,11.7,30.60,WSW,247,0.0,0.0,90,0.00,,,0.00,meteohub,2013-10-06 13:32:00,
2013-10-06 06:37:00,14.5,12.2,30.60,WSW,247,0.0,0.0,90,0.00,,,0.00,meteohub,2013-10-06 13:37:00,
2013-10-06 06:42:00,15.1,12.4,30.60,WSW,247,0.0,0.0,89,0.00,,,0.00,meteohub,2013-10-06 13:42:00,
2013-10-06 06:47:00,14.5,11.1,30.60,WSW,247,2.0,2.0,86,0.00,,,0.00,meteohub,2013-10-06 13:47:00,
2013-10-06 06:52:00,14.5,11.7,30.60,WSW,247,0.0,2.0,88,0.00,,,0.00,meteohub,2013-10-06 13:52:00,
2013-10-06 06:57:00,15.3,12.6,30.60,WSW,247,0.0,2.0,89,0.00,,,0.00,meteohub,2013-10-06 13:57:00,
2013-10-06 07:02:00,15.6,12.4,30.60,WSW,247,2.0,2.0,87,0.00,,,0.00,meteohub,2013-10-06 14:02:00,
2013-10-06 07:07:00,16.2,13.3,30.61,WSW,247,0.0,3.0,88,0.00,,,0.00,meteohub,2013-10-06 14:07:00,
2013-10-06 07:12:00,17.1,14.4,30.61,WSW,247,0.0,3.0,89,0.00,,,0.00,meteohub,2013-10-06 14:12:00,
2013-10-06 07:17:00,18.0,15.1,30.61,WSW,247,0.0,3.0,88,0.00,,,0.00,meteohub,2013-10-06 14:17:00,
2013-10-06 07:22:00,19.0,15.6,30.61,WSW,247,0.0,1.0,86,0.00,,,0.00,meteohub,2013-10-06 14:22:00,
2013-10-06 07:27:00,20.7,16.9,30.61,WSW,247,0.0,0.0,85,0.00,,,0.00,meteohub,2013-10-06 14:27:00,
2013-10-06 07:32:00,21.6,16.9,30.61,WSW,247,0.0,0.0,82,0.00,,,0.00,meteohub,2013-10-06 14:32:00,
2013-10-06 07:37:00,22.5,16.7,30.61,WSW,247,0.0,0.0,78,0.00,,,0.00,meteohub,2013-10-06 14:37:00,
2013-10-06 07:42:00,23.2,16.7,30.61,WSW,247,0.0,0.0,76,0.00,,,0.00,meteohub,2013-10-06 14:42:00,
2013-10-06 07:47:00,23.5,16.7,30.61,WSW,247,0.0,1.0,75,0.00,,,0.00,meteohub,2013-10-06 14:47:00,
2013-10-06 07:52:00,24.3,16.2,30.61,WSW,247,0.0,1.0,71,0.00,,,0.00,meteohub,2013-10-06 14:52:00,
2013-10-06 07:57:00,25.2,16.3,30.61,WSW,247,0.0,1.0,69,0.00,,,0.00,meteohub,2013-10-06 14:57:00,
2013-10-06 08:02:00,26.2,16.7,30.61,WSW,247,0.0,1.0,67,0.00,,,0.00,meteohub,2013-10-06 15:02:00,
2013-10-06 08:07:00,26.8,16.5,30.61,WSW,247,0.0,2.0,65,0.00,,,0.00,meteohub,2013-10-06 15:07:00,
2013-10-06 08:12:00,27.0,16.7,30.61,WSW,248,0.0,2.0,65,0.00,,,0.00,meteohub,2013-10-06 15:12:00,
2013-10-06 08:22:00,27.7,17.1,30.60,WSW,248,0.0,2.0,64,0.00,,,0.00,meteohub,2013-10-06 15:22:00,
2013-10-06 08:27:00,28.0,16.7,30.60,WSW,250,0.0,2.0,62,0.00,,,0.00,meteohub,2013-10-06 15:27:00,
2013-10-06 08:32:00,28.6,16.5,30.60,WSW,250,0.0,2.0,60,0.00,,,0.00,meteohub,2013-10-06 15:32:00,
2013-10-06 08:37:00,29.3,16.7,30.60,NE,47,0.0,2.0,59,0.00,,,0.00,meteohub,2013-10-06 15:37:00,
2013-10-06 08:42:00,30.0,17.1,30.60,NE,47,0.0,2.0,58,0.00,,,0.00,meteohub,2013-10-06 15:42:00,
2013-10-06 08:47:00,30.4,16.2,30.60,NE,47,0.0,2.0,55,0.00,,,0.00,meteohub,2013-10-06 15:47:00,
2013-10-06 08:52:00,30.7,15.6,30.60,NE,47,1.0,2.0,53,0.00,,,0.00,meteohub,2013-10-06 15:52:00,
2013-10-06 08:57:00,31.6,16.0,30.60,NE,47,1.0,2.0,52,0.00,,,0.00,meteohub,2013-10-06 15:57:00,
2013-10-06 09:02:00,32.5,12.6,30.60,NE,51,2.0,2.0,43,0.00,,,0.00,meteohub,2013-10-06 16:02:00,
2013-10-06 09:07:00,33.3,13.6,30.60,NE,49,1.0,2.0,44,0.00,,,0.00,meteohub,2013-10-06 16:07:00,
2013-10-06 09:12:00,34.0,13.8,30.60,NE,42,3.0,4.0,43,0.00,,,0.00,meteohub,2013-10-06 16:12:00,
2013-10-06 09:17:00,34.5,15.8,30.59,NNE,17,2.0,4.0,46,0.00,,,0.00,meteohub,2013-10-06 16:17:00,
2013-10-06 09:27:00,35.8,16.5,30.59,NNE,23,0.0,4.0,45,0.00,,,0.00,meteohub,2013-10-06 16:27:00,
2013-10-06 09:32:00,36.5,17.2,30.59,North,0,2.0,4.0,45,0.00,,,0.00,meteohub,2013-10-06 16:32:00,
2013-10-06 09:37:00,36.9,17.1,30.58,North,355,0.0,4.0,44,0.00,,,0.00,meteohub,2013-10-06 16:37:00,
2013-10-06 09:47:00,38.3,16.7,30.58,NW,304,0.0,4.0,41,0.00,,,0.00,meteohub,2013-10-06 16:47:00,
2013-10-06 09:57:00,39.7,16.2,30.57,NNE,23,2.0,3.0,38,0.00,,,0.00,meteohub,2013-10-06 16:57:00,
2013-10-06 10:02:00,40.5,16.2,30.57,NNE,30,2.0,3.0,37,0.00,,,0.00,meteohub,2013-10-06 17:02:00,
2013-10-06 10:07:00,40.8,12.6,30.57,NE,44,2.0,4.0,31,0.00,,,0.00,meteohub,2013-10-06 17:07:00,
2013-10-06 10:12:00,41.4,12.9,30.56,ESE,111,0.0,4.0,31,0.00,,,0.00,meteohub,2013-10-06 17:12:00,
2013-10-06 10:17:00,41.4,9.0,30.56,NE,56,0.0,5.0,26,0.00,,,0.00,meteohub,2013-10-06 17:17:00,
2013-10-06 10:22:00,41.9,12.0,30.56,NE,47,2.0,6.0,29,0.00,,,0.00,meteohub,2013-10-06 17:22:00,
2013-10-06 10:27:00,42.3,12.2,30.56,NE,40,3.0,6.0,29,0.00,,,0.00,meteohub,2013-10-06 17:27:00,
2013-10-06 10:32:00,42.8,14.9,30.56,North,5,2.0,6.0,32,0.00,,,0.00,meteohub,2013-10-06 17:32:00,
2013-10-06 10:37:00,43.3,14.0,30.56,North,0,2.0,6.0,30,0.00,,,0.00,meteohub,2013-10-06 17:37:00,
2013-10-06 10:42:00,43.9,14.4,30.56,NE,36,1.0,4.0,30,0.00,,,0.00,meteohub,2013-10-06 17:42:00,
2013-10-06 10:47:00,44.2,15.4,30.55,ENE,61,1.0,6.0,31,0.00,,,0.00,meteohub,2013-10-06 17:47:00,
2013-10-06 10:52:00,44.8,13.6,30.55,ENE,62,3.0,7.0,28,0.00,,,0.00,meteohub,2013-10-06 17:52:00,
2013-10-06 10:57:00,45.1,10.4,30.55,NNE,19,3.0,7.0,24,0.00,,,0.00,meteohub,2013-10-06 17:57:00,
2013-10-06 11:02:00,45.7,7.9,30.54,NNE,13,2.0,7.0,21,0.00,,,0.00,meteohub,2013-10-06 18:02:00,
2013-10-06 11:07:00,46.2,13.3,30.54,ENE,77,0.0,7.0,26,0.00,,,0.00,meteohub,2013-10-06 18:07:00,
2013-10-06 11:17:00,47.1,11.1,30.53,ENE,72,2.0,7.0,23,0.00,,,0.00,meteohub,2013-10-06 18:17:00,
2013-10-06 11:22:00,47.7,9.7,30.53,ENE,59,3.0,7.0,21,0.00,,,0.00,meteohub,2013-10-06 18:22:00,
2013-10-06 11:27:00,48.4,9.1,30.53,ENE,65,0.0,7.0,20,0.00,,,0.00,meteohub,2013-10-06 18:27:00,
2013-10-06 11:32:00,49.1,9.7,30.52,ENE,64,0.0,4.0,20,0.00,,,0.00,meteohub,2013-10-06 18:32:00,
2013-10-06 11:37:00,49.8,10.4,30.52,West,281,3.0,4.0,20,0.00,,,0.00,meteohub,2013-10-06 18:37:00,
2013-10-06 11:42:00,50.5,9.9,30.51,WNW,298,2.0,5.0,19,0.00,,,0.00,meteohub,2013-10-06 18:42:00,
2013-10-06 11:47:00,50.7,11.1,30.51,NNE,13,1.0,5.0,20,0.00,,,0.00,meteohub,2013-10-06 18:47:00,
2013-10-06 11:52:00,51.4,11.7,30.51,ENE,61,3.0,4.0,20,0.00,,,0.00,meteohub,2013-10-06 18:52:00,
2013-10-06 11:57:00,51.6,9.5,30.50,NNE,32,2.0,5.0,18,0.00,,,0.00,meteohub,2013-10-06 18:57:00,
2013-10-06 12:02:00,51.8,9.7,30.50,NE,47,2.0,5.0,18,0.00,,,0.00,meteohub,2013-10-06 19:02:00,
2013-10-06 12:07:00,52.3,12.4,30.49,NW,307,3.0,5.0,20,0.00,,,0.00,meteohub,2013-10-06 19:07:00,
2013-10-06 12:12:00,53.1,11.8,30.49,NW,311,3.0,5.0,19,0.00,,,0.00,meteohub,2013-10-06 19:12:00,
2013-10-06 12:22:00,53.8,13.6,30.48,NE,40,0.0,5.0,20,0.00,,,0.00,meteohub,2013-10-06 19:22:00,
2013-10-06 12:27:00,54.3,15.3,30.48,ENE,60,1.0,5.0,21,0.00,,,0.00,meteohub,2013-10-06 19:27:00,
2013-10-06 12:32:00,54.7,16.5,30.48,ENE,64,4.0,8.0,22,0.00,,,0.00,meteohub,2013-10-06 19:32:00,
2013-10-06 12:42:00,55.2,19.0,30.47,North,5,1.0,8.0,24,0.00,,,0.00,meteohub,2013-10-06 19:42:00,
2013-10-06 12:47:00,55.9,19.6,30.46,NE,44,3.0,8.0,24,0.00,,,0.00,meteohub,2013-10-06 19:47:00,
2013-10-06 12:52:00,55.9,19.6,30.46,NNE,32,4.0,7.0,24,0.00,,,0.00,meteohub,2013-10-06 19:52:00,
2013-10-06 12:57:00,56.3,21.9,30.46,North,355,4.0,7.0,26,0.00,,,0.00,meteohub,2013-10-06 19:57:00,
2013-10-06 13:02:00,56.8,18.3,30.45,ENE,75,7.0,7.0,22,0.00,,,0.00,meteohub,2013-10-06 20:02:00,
2013-10-06 13:07:00,57.0,21.6,30.45,NNE,20,4.0,9.0,25,0.00,,,0.00,meteohub,2013-10-06 20:07:00,
2013-10-06 13:12:00,57.2,20.7,30.45,ENE,58,4.0,9.0,24,0.00,,,0.00,meteohub,2013-10-06 20:12:00,
2013-10-06 13:17:00,57.2,20.7,30.44,North,5,4.0,10.0,24,0.00,,,0.00,meteohub,2013-10-06 20:17:00,
2013-10-06 13:22:00,57.7,20.1,30.44,North,5,2.0,10.0,23,0.00,,,0.00,meteohub,2013-10-06 20:22:00,
2013-10-06 13:27:00,57.9,22.3,30.44,NE,37,4.0,10.0,25,0.00,,,0.00,meteohub,2013-10-06 20:27:00,
2013-10-06 13:32:00,57.9,20.3,30.43,ENE,57,7.0,10.0,23,0.00,,,0.00,meteohub,2013-10-06 20:32:00,
2013-10-06 13:37:00,58.1,20.5,30.43,NNE,30,9.0,10.0,23,0.00,,,0.00,meteohub,2013-10-06 20:37:00,
2013-10-06 13:42:00,58.5,20.8,30.43,NE,55,6.0,11.0,23,0.00,,,0.00,meteohub,2013-10-06 20:42:00,
2013-10-06 13:47:00,58.8,20.1,30.43,East,82,6.0,11.0,22,0.00,,,0.00,meteohub,2013-10-06 20:47:00,
2013-10-06 13:52:00,59.4,21.6,30.43,SE,125,2.0,11.0,23,0.00,,,0.00,meteohub,2013-10-06 20:52:00,
2013-10-06 13:57:00,59.7,20.8,30.43,ENE,65,10.0,10.0,22,0.00,,,0.00,meteohub,2013-10-06 20:57:00,
2013-10-06 14:02:00,59.5,21.7,30.42,NNE,19,4.0,10.0,23,0.00,,,0.00,meteohub,2013-10-06 21:02:00,
2013-10-06 14:07:00,59.5,20.7,30.42,ENE,72,4.0,10.0,22,0.00,,,0.00,meteohub,2013-10-06 21:07:00,
2013-10-06 14:12:00,59.2,21.4,30.42,ENE,57,7.0,10.0,23,0.00,,,0.00,meteohub,2013-10-06 21:12:00,
2013-10-06 14:17:00,59.4,22.6,30.42,ENE,64,8.0,11.0,24,0.00,,,0.00,meteohub,2013-10-06 21:17:00,
2013-10-06 14:22:00,59.4,20.5,30.41,SE,138,1.0,11.0,22,0.00,,,0.00,meteohub,2013-10-06 21:22:00,
2013-10-06 14:27:00,59.9,21.0,30.41,NE,38,2.0,14.0,22,0.00,,,0.00,meteohub,2013-10-06 21:27:00,
2013-10-06 14:32:00,60.1,21.0,30.41,ENE,59,10.0,14.0,22,0.00,,,0.00,meteohub,2013-10-06 21:32:00,
2013-10-06 14:42:00,60.1,23.2,30.40,NNE,18,4.0,11.0,24,0.00,,,0.00,meteohub,2013-10-06 21:42:00,
2013-10-06 14:47:00,60.3,22.3,30.40,NE,55,11.0,12.0,23,0.00,,,0.00,meteohub,2013-10-06 21:47:00,
2013-10-06 14:52:00,60.1,23.2,30.40,ENE,63,8.0,12.0,24,0.00,,,0.00,meteohub,2013-10-06 21:52:00,
2013-10-06 14:57:00,60.1,22.1,30.40,ENE,63,8.0,12.0,23,0.00,,,0.00,meteohub,2013-10-06 21:57:00,
2013-10-06 15:02:00,60.3,23.4,30.40,East,85,8.0,12.0,24,0.00,,,0.00,meteohub,2013-10-06 22:02:00,
2013-10-06 15:12:00,60.1,22.1,30.39,NE,34,2.0,10.0,23,0.00,,,0.00,meteohub,2013-10-06 22:12:00,
2013-10-06 15:17:00,60.3,23.4,30.39,ENE,63,3.0,11.0,24,0.00,,,0.00,meteohub,2013-10-06 22:17:00,
2013-10-06 15:22:00,60.4,22.5,30.39,East,80,5.0,11.0,23,0.00,,,0.00,meteohub,2013-10-06 22:22:00,
2013-10-06 15:27:00,60.4,24.4,30.39,ENE,61,8.0,14.0,25,0.00,,,0.00,meteohub,2013-10-06 22:27:00,
2013-10-06 15:32:00,60.4,25.3,30.39,ESE,103,5.0,14.0,26,0.00,,,0.00,meteohub,2013-10-06 22:32:00,
2013-10-06 15:37:00,60.1,26.1,30.38,East,92,7.0,14.0,27,0.00,,,0.00,meteohub,2013-10-06 22:37:00,
2013-10-06 15:42:00,60.1,25.2,30.38,East,86,5.0,14.0,26,0.00,,,0.00,meteohub,2013-10-06 22:42:00,
2013-10-06 15:47:00,60.1,25.2,30.38,ESE,107,9.0,14.0,26,0.00,,,0.00,meteohub,2013-10-06 22:47:00,
2013-10-06 15:52:00,60.3,26.1,30.39,East,81,7.0,11.0,27,0.00,,,0.00,meteohub,2013-10-06 22:52:00,
2013-10-06 15:57:00,60.3,27.0,30.39,ENE,74,9.0,13.0,28,0.00,,,0.00,meteohub,2013-10-06 22:57:00,
2013-10-06 16:02:00,60.1,26.8,30.38,ENE,67,9.0,13.0,28,0.00,,,0.00,meteohub,2013-10-06 23:02:00,
2013-10-06 16:07:00,59.5,26.4,30.38,ENE,72,10.0,13.0,28,0.00,,,0.00,meteohub,2013-10-06 23:07:00,
2013-10-06 16:17:00,59.4,27.1,30.39,East,85,7.0,13.0,29,0.00,,,0.00,meteohub,2013-10-06 23:17:00,
2013-10-06 16:22:00,59.4,26.2,30.38,East,98,5.0,13.0,28,0.00,,,0.00,meteohub,2013-10-06 23:22:00,
2013-10-06 16:27:00,59.4,27.1,30.38,ENE,77,5.0,11.0,29,0.00,,,0.00,meteohub,2013-10-06 23:27:00,
2013-10-06 16:32:00,59.2,27.0,30.38,ENE,69,8.0,11.0,29,0.00,,,0.00,meteohub,2013-10-06 23:32:00,
2013-10-06 16:37:00,58.8,25.7,30.38,East,80,8.0,11.0,28,0.00,,,0.00,meteohub,2013-10-06 23:37:00,
2013-10-06 16:42:00,58.8,26.6,30.38,ENE,71,7.0,11.0,29,0.00,,,0.00,meteohub,2013-10-06 23:42:00,
2013-10-06 16:47:00,58.6,27.3,30.38,ENE,78,8.0,11.0,30,0.00,,,0.00,meteohub,2013-10-06 23:47:00,
2013-10-06 16:52:00,58.3,27.0,30.38,East,92,6.0,11.0,30,0.00,,,0.00,meteohub,2013-10-06 23:52:00,
2013-10-06 16:57:00,58.3,27.0,30.38,East,94,8.0,11.0,30,0.00,,,0.00,meteohub,2013-10-06 23:57:00,
2013-10-06 17:02:00,57.7,26.4,30.38,ENE,69,4.0,10.0,30,0.00,,,0.00,meteohub,2013-10-07 00:02:00,
2013-10-06 17:07:00,57.4,27.0,30.38,ENE,71,10.0,10.0,31,0.00,,,0.00,meteohub,2013-10-07 00:07:00,
2013-10-06 17:12:00,56.8,28.0,30.38,ENE,71,3.0,11.0,33,0.00,,,0.00,meteohub,2013-10-07 00:12:00,
2013-10-06 17:17:00,55.8,27.9,30.38,ENE,77,4.0,11.0,34,0.00,,,0.00,meteohub,2013-10-07 00:17:00,
2013-10-06 17:22:00,54.9,27.7,30.38,ENE,67,5.0,11.0,35,0.00,,,0.00,meteohub,2013-10-07 00:22:00,
2013-10-06 17:27:00,53.4,27.9,30.38,ENE,63,7.0,9.0,37,0.00,,,0.00,meteohub,2013-10-07 00:27:00,
2013-10-06 17:32:00,52.2,27.9,30.38,ENE,69,5.0,9.0,39,0.00,,,0.00,meteohub,2013-10-07 00:32:00,
2013-10-06 17:37:00,51.6,27.5,30.38,East,86,1.0,8.0,39,0.00,,,0.00,meteohub,2013-10-07 00:37:00,
2013-10-06 17:42:00,51.4,27.9,30.38,ENE,64,4.0,8.0,40,0.00,,,0.00,meteohub,2013-10-07 00:42:00,
2013-10-06 17:47:00,50.5,27.7,30.38,ENE,69,3.0,8.0,41,0.00,,,0.00,meteohub,2013-10-07 00:47:00,
2013-10-06 17:52:00,49.6,27.5,30.39,NE,55,1.0,7.0,42,0.00,,,0.00,meteohub,2013-10-07 00:52:00,
2013-10-06 17:57:00,49.1,27.5,30.39,East,97,1.0,7.0,43,0.00,,,0.00,meteohub,2013-10-07 00:57:00,
2013-10-06 18:02:00,48.9,26.8,30.39,East,92,1.0,7.0,42,0.00,,,0.00,meteohub,2013-10-07 01:02:00,
2013-10-06 18:07:00,48.0,27.1,30.39,East,92,0.0,8.0,44,0.00,,,0.00,meteohub,2013-10-07 01:07:00,
2013-10-06 18:12:00,46.6,27.0,30.40,NW,321,0.0,8.0,46,0.00,,,0.00,meteohub,2013-10-07 01:12:00,
2013-10-06 18:17:00,45.7,27.1,30.40,NW,321,1.0,3.0,48,0.00,,,0.00,meteohub,2013-10-07 01:17:00,
2013-10-06 18:27:00,43.5,27.1,30.40,WNW,302,4.0,4.0,52,0.00,,,0.00,meteohub,2013-10-07 01:27:00,
2013-10-06 18:32:00,40.6,27.0,30.40,West,259,6.0,6.0,58,0.00,,,0.00,meteohub,2013-10-07 01:32:00,
2013-10-06 18:37:00,39.7,27.0,30.41,WSW,244,4.0,7.0,60,0.00,,,0.00,meteohub,2013-10-07 01:37:00,
2013-10-06 18:42:00,39.6,27.1,30.41,WSW,243,4.0,7.0,61,0.00,,,0.00,meteohub,2013-10-07 01:42:00,
2013-10-06 18:47:00,39.9,27.1,30.41,WSW,248,4.0,7.0,60,0.00,,,0.00,meteohub,2013-10-07 01:47:00,
2013-10-06 18:52:00,39.4,27.1,30.41,WSW,256,4.0,7.0,61,0.00,,,0.00,meteohub,2013-10-07 01:52:00,
2013-10-06 18:57:00,38.8,27.0,30.41,WSW,257,4.0,7.0,62,0.00,,,0.00,meteohub,2013-10-07 01:57:00,
2013-10-06 19:02:00,38.5,27.0,30.41,WSW,257,3.0,6.0,63,0.00,,,0.00,meteohub,2013-10-07 02:02:00,
2013-10-06 19:07:00,38.7,27.1,30.41,WSW,254,3.0,5.0,63,0.00,,,0.00,meteohub,2013-10-07 02:07:00,
2013-10-06 19:12:00,38.5,27.0,30.42,WSW,254,3.0,5.0,63,0.00,,,0.00,meteohub,2013-10-07 02:12:00,
2013-10-06 19:17:00,38.1,27.0,30.42,WSW,254,2.0,5.0,64,0.00,,,0.00,meteohub,2013-10-07 02:17:00,
2013-10-06 19:22:00,37.6,27.0,30.42,WSW,254,2.0,5.0,65,0.00,,,0.00,meteohub,2013-10-07 02:22:00,
2013-10-06 19:27:00,37.2,26.2,30.42,WSW,253,3.0,5.0,64,0.00,,,0.00,meteohub,2013-10-07 02:27:00,
2013-10-06 19:32:00,37.0,26.4,30.42,WSW,246,6.0,6.0,65,0.00,,,0.00,meteohub,2013-10-07 02:32:00,
2013-10-06 19:37:00,37.2,26.6,30.42,WSW,252,3.0,6.0,65,0.00,,,0.00,meteohub,2013-10-07 02:37:00,
2013-10-06 19:42:00,36.3,26.1,30.43,WSW,253,3.0,6.0,66,0.00,,,0.00,meteohub,2013-10-07 02:42:00,
2013-10-06 19:47:00,35.4,26.2,30.42,WSW,253,1.0,6.0,69,0.00,,,0.00,meteohub,2013-10-07 02:47:00,
2013-10-06 19:52:00,35.2,26.4,30.42,WSW,253,2.0,5.0,70,0.00,,,0.00,meteohub,2013-10-07 02:52:00,
2013-10-06 19:57:00,35.6,26.8,30.43,WSW,253,2.0,4.0,70,0.00,,,0.00,meteohub,2013-10-07 02:57:00,
2013-10-06 20:02:00,35.8,26.6,30.43,WSW,253,0.0,3.0,69,0.00,,,0.00,meteohub,2013-10-07 03:02:00,
2013-10-06 20:07:00,35.8,26.6,30.43,WSW,253,0.0,3.0,69,0.00,,,0.00,meteohub,2013-10-07 03:07:00,
2013-10-06 20:12:00,35.8,26.6,30.43,WSW,253,0.0,3.0,69,0.00,,,0.00,meteohub,2013-10-07 03:12:00,
2013-10-06 20:17:00,35.4,26.2,30.43,WSW,253,0.0,1.0,69,0.00,,,0.00,meteohub,2013-10-07 03:17:00,
2013-10-06 20:22:00,35.1,26.2,30.44,WSW,253,0.0,1.0,70,0.00,,,0.00,meteohub,2013-10-07 03:22:00,
2013-10-06 20:27:00,35.1,26.2,30.44,WSW,253,0.0,1.0,70,0.00,,,0.00,meteohub,2013-10-07 03:27:00,
2013-10-06 20:32:00,34.5,25.7,30.44,WSW,253,0.0,0.0,70,0.00,,,0.00,meteohub,2013-10-07 03:32:00,
2013-10-06 20:37:00,34.2,25.7,30.43,WSW,253,1.0,1.0,71,0.00,,,0.00,meteohub,2013-10-07 03:37:00,
2013-10-06 20:42:00,33.6,25.5,30.44,WSW,253,1.0,1.0,72,0.00,,,0.00,meteohub,2013-10-07 03:42:00,
2013-10-06 20:47:00,33.3,25.5,30.44,WSW,253,1.0,2.0,73,0.00,,,0.00,meteohub,2013-10-07 03:47:00,
2013-10-06 20:52:00,33.1,25.7,30.44,WSW,253,0.0,2.0,74,0.00,,,0.00,meteohub,2013-10-07 03:52:00,
2013-10-06 21:02:00,32.7,25.3,30.44,WSW,253,0.0,2.0,74,0.00,,,0.00,meteohub,2013-10-07 04:02:00,
2013-10-06 21:07:00,32.5,25.2,30.44,WSW,253,0.0,0.0,74,0.00,,,0.00,meteohub,2013-10-07 04:07:00,
2013-10-06 21:12:00,32.2,24.8,30.44,WSW,253,0.0,0.0,74,0.00,,,0.00,meteohub,2013-10-07 04:12:00,
2013-10-06 21:17:00,31.6,24.6,30.44,WSW,253,0.0,0.0,75,0.00,,,0.00,meteohub,2013-10-07 04:17:00,
2013-10-06 21:22:00,31.3,24.6,30.44,WSW,253,0.0,0.0,76,0.00,,,0.00,meteohub,2013-10-07 04:22:00,
2013-10-06 21:27:00,30.9,24.8,30.44,WSW,253,0.0,0.0,78,0.00,,,0.00,meteohub,2013-10-07 04:27:00,
2013-10-06 21:32:00,30.9,25.2,30.45,WSW,253,0.0,0.0,79,0.00,,,0.00,meteohub,2013-10-07 04:32:00,
2013-10-06 21:37:00,30.9,25.2,30.45,WSW,253,0.0,0.0,79,0.00,,,0.00,meteohub,2013-10-07 04:37:00,
2013-10-06 21:42:00,31.3,25.5,30.45,WSW,253,0.0,0.0,79,0.00,,,0.00,meteohub,2013-10-07 04:42:00,
2013-10-06 21:47:00,31.1,24.8,30.45,WSW,253,0.0,0.0,77,0.00,,,0.00,meteohub,2013-10-07 04:47:00,
2013-10-06 21:52:00,30.9,24.6,30.45,WSW,253,0.0,0.0,77,0.00,,,0.00,meteohub,2013-10-07 04:52:00,
2013-10-06 21:57:00,30.7,24.6,30.45,WSW,253,0.0,0.0,78,0.00,,,0.00,meteohub,2013-10-07 04:57:00,
2013-10-06 22:02:00,30.6,24.8,30.44,WSW,253,0.0,2.0,79,0.00,,,0.00,meteohub,2013-10-07 05:02:00,
2013-10-06 22:07:00,30.6,24.4,30.45,WSW,253,0.0,2.0,78,0.00,,,0.00,meteohub,2013-10-07 05:07:00,
2013-10-06 22:12:00,30.0,24.1,30.44,WSW,253,0.0,2.0,78,0.00,,,0.00,meteohub,2013-10-07 05:12:00,
2013-10-06 22:17:00,29.7,23.9,30.45,WSW,253,0.0,0.0,79,0.00,,,0.00,meteohub,2013-10-07 05:17:00,
2013-10-06 22:22:00,29.5,24.1,30.44,WSW,253,0.0,1.0,80,0.00,,,0.00,meteohub,2013-10-07 05:22:00,
2013-10-06 22:27:00,29.1,23.7,30.44,WSW,253,0.0,1.0,80,0.00,,,0.00,meteohub,2013-10-07 05:27:00,
2013-10-06 22:32:00,28.9,23.5,30.44,WSW,253,0.0,1.0,80,0.00,,,0.00,meteohub,2013-10-07 05:32:00,
2013-10-06 22:37:00,28.8,23.9,30.44,WSW,253,0.0,0.0,82,0.00,,,0.00,meteohub,2013-10-07 05:37:00,
2013-10-06 22:42:00,28.9,24.1,30.44,WSW,253,0.0,0.0,82,0.00,,,0.00,meteohub,2013-10-07 05:42:00,
2013-10-06 22:47:00,28.9,23.9,30.44,WSW,253,0.0,0.0,81,0.00,,,0.00,meteohub,2013-10-07 05:47:00,
2013-10-06 22:57:00,28.4,23.5,30.43,WSW,253,0.0,0.0,82,0.00,,,0.00,meteohub,2013-10-07 05:57:00,
2013-10-06 23:02:00,28.0,23.2,30.43,WSW,253,0.0,0.0,82,0.00,,,0.00,meteohub,2013-10-07 06:02:00,
2013-10-06 23:07:00,28.0,23.5,30.43,WSW,253,0.0,0.0,83,0.00,,,0.00,meteohub,2013-10-07 06:07:00,
2013-10-06 23:12:00,27.9,23.4,30.43,WSW,253,0.0,0.0,83,0.00,,,0.00,meteohub,2013-10-07 06:12:00,
2013-10-06 23:17:00,27.3,22.6,30.43,WSW,253,0.0,0.0,82,0.00,,,0.00,meteohub,2013-10-07 06:17:00,
2013-10-06 23:22:00,27.0,22.8,30.43,WSW,253,0.0,0.0,84,0.00,,,0.00,meteohub,2013-10-07 06:22:00,
2013-10-06 23:27:00,27.0,23.0,30.43,WSW,253,0.0,0.0,85,0.00,,,0.00,meteohub,2013-10-07 06:27:00,
2013-10-06 23:32:00,26.8,22.8,30.43,WSW,253,0.0,0.0,85,0.00,,,0.00,meteohub,2013-10-07 06:32:00,
2013-10-06 23:37:00,26.6,22.6,30.43,WSW,253,0.0,0.0,85,0.00,,,0.00,meteohub,2013-10-07 06:37:00,
2013-10-06 23:42:00,26.6,23.2,30.43,WSW,253,0.0,0.0,87,0.00,,,0.00,meteohub,2013-10-07 06:42:00,
2013-10-06 23:52:00,26.6,23.2,30.43,WSW,253,0.0,0.0,87,0.00,,,0.00,meteohub,2013-10-07 06:52:00,
2013-10-06 23:57:00,26.8,23.4,30.43,WSW,253,0.0,0.0,87,0.00,,,0.00,meteohub,2013-10-07 06:57:00,